createdAt,value
2023-01-17T00:01:25.019Z,80.54
2023-01-17T00:06:50.442Z,80.58
2023-01-17T00:11:58.041Z,80.62
2023-01-17T00:17:06.641Z,80.69
2023-01-17T00:22:44.835Z,80.75
2023-01-17T00:27:51.551Z,80.77
2023-01-17T00:32:59.021Z,80.88
2023-01-17T00:38:07.612Z,80.95
2023-01-17T00:43:35.766Z,81.01
2023-01-17T00:49:02.434Z,81.01
2023-01-17T00:54:30.424Z,81.05
2023-01-17T00:59:58.095Z,81.07
2023-01-17T01:05:24.725Z,81.10
2023-01-17T01:10:50.694Z,81.14
2023-01-17T01:16:19.838Z,81.15
2023-01-17T01:21:45.746Z,81.15
2023-01-17T01:27:13.118Z,81.17
2023-01-17T01:32:40.629Z,81.17
2023-01-17T01:37:49.444Z,81.18
2023-01-17T01:43:00.103Z,81.21
2023-01-17T01:48:18.211Z,81.22
2023-01-17T01:53:26.727Z,81.23
2023-01-17T01:58:38.768Z,81.25
2023-01-17T02:03:47.641Z,81.25
2023-01-17T02:08:56.206Z,81.20
2023-01-17T02:14:04.950Z,81.15
2023-01-17T02:19:39.931Z,81.13
2023-01-17T02:25:14.262Z,81.08
2023-01-17T02:30:37.520Z,81.04
2023-01-17T02:35:56.711Z,81.04
2023-01-17T02:41:10.351Z,81.02
2023-01-17T02:46:17.692Z,81.13
2023-01-17T02:51:49.549Z,81.53
2023-01-17T02:57:15.168Z,81.08
2023-01-17T03:02:29.764Z,81.02
2023-01-17T03:07:40.427Z,81.07
2023-01-17T03:12:49.061Z,81.38
2023-01-17T03:18:00.900Z,82.45
2023-01-17T03:23:09.310Z,82.70
2023-01-17T03:28:17.471Z,82.71
2023-01-17T03:33:25.795Z,82.60
2023-01-17T03:38:34.072Z,82.48
2023-01-17T03:43:42.811Z,82.35
2023-01-17T03:48:51.375Z,82.22
2023-01-17T03:53:59.594Z,82.11
2023-01-17T03:59:08.103Z,82.03
2023-01-17T04:04:16.831Z,81.93
2023-01-17T04:09:25.108Z,81.84
2023-01-17T04:14:33.481Z,81.74
2023-01-17T04:19:45.160Z,81.65
2023-01-17T04:24:53.903Z,81.59
2023-01-17T04:30:02.596Z,81.54
2023-01-17T04:35:11.678Z,81.47
2023-01-17T04:40:20.829Z,81.41
2023-01-17T04:45:29.500Z,81.37
2023-01-17T04:50:37.766Z,81.31
2023-01-17T04:55:49.076Z,81.27
2023-01-17T05:00:57.656Z,81.24
2023-01-17T05:06:06.554Z,81.21
2023-01-17T05:11:14.809Z,81.17
2023-01-17T05:16:24.140Z,81.12
2023-01-17T05:21:39.296Z,81.08
2023-01-17T05:26:49.022Z,81.09
2023-01-17T05:31:57.970Z,80.88
2023-01-17T05:37:06.217Z,80.02
2023-01-17T05:42:14.520Z,80.00
2023-01-17T05:47:22.917Z,80.22
2023-01-17T05:52:31.238Z,81.41
2023-01-17T05:57:40.533Z,82.04
2023-01-17T06:02:49.156Z,82.17
2023-01-17T06:07:58.216Z,82.18
2023-01-17T06:13:08.458Z,82.17
2023-01-17T06:18:18.809Z,82.18
2023-01-17T06:23:28.698Z,82.12
2023-01-17T06:28:37.058Z,82.08
2023-01-17T06:33:45.349Z,82.05
2023-01-17T06:38:55.234Z,82.02
2023-01-17T06:44:04.731Z,81.99
2023-01-17T06:49:13.188Z,81.95
2023-01-17T06:54:21.618Z,81.87
2023-01-17T06:59:30.082Z,81.00
2023-01-17T07:04:38.456Z,80.83
2023-01-17T07:09:47.386Z,80.98
2023-01-17T07:14:56.861Z,81.20
2023-01-17T07:20:05.603Z,81.45
2023-01-17T07:25:14.381Z,81.69
2023-01-17T07:30:23.067Z,81.92
2023-01-17T07:35:31.955Z,82.12
2023-01-17T07:40:42.421Z,82.30
2023-01-17T07:45:52.424Z,82.48
2023-01-17T07:51:01.817Z,82.64
2023-01-17T07:56:11.532Z,82.78
2023-01-17T08:01:19.767Z,82.91
2023-01-17T08:06:29.787Z,83.02
2023-01-17T08:11:38.167Z,83.14
2023-01-17T08:16:46.451Z,83.23
2023-01-17T08:21:54.701Z,83.34
2023-01-17T08:27:02.987Z,83.43
2023-01-17T08:32:10.796Z,83.51
2023-01-17T08:37:18.409Z,83.58
2023-01-17T08:42:26.954Z,83.66
2023-01-17T08:47:35.735Z,83.74
2023-01-17T08:52:44.579Z,83.80
2023-01-17T08:57:52.424Z,83.86
2023-01-17T09:03:01.989Z,83.91
2023-01-17T09:08:11.737Z,83.94
2023-01-17T09:13:20.327Z,83.92
2023-01-17T09:18:29.919Z,83.92
2023-01-17T09:23:38.265Z,83.87
2023-01-17T09:28:46.895Z,83.87
2023-01-17T09:33:56.407Z,83.85
2023-01-17T09:39:05.693Z,83.83
2023-01-17T09:44:25.790Z,83.81
2023-01-17T09:49:42.677Z,83.82
2023-01-17T09:54:52.908Z,83.80
2023-01-17T10:00:13.405Z,83.76
2023-01-17T10:05:35.262Z,83.71
2023-01-17T10:10:49.129Z,83.69
2023-01-17T10:16:16.058Z,83.68
2023-01-17T10:21:34.911Z,83.68
2023-01-17T10:26:42.477Z,83.71
2023-01-17T10:31:55.886Z,83.75
2023-01-17T10:37:13.592Z,83.79
2023-01-17T10:42:25.578Z,83.83
2023-01-17T10:47:37.189Z,83.85
2023-01-17T10:52:56.106Z,83.85
2023-01-17T10:58:04.865Z,83.82
2023-01-17T11:03:14.263Z,83.77
2023-01-17T11:08:22.841Z,83.68
2023-01-17T11:13:35.506Z,83.61
2023-01-17T11:20:02.054Z,83.56
2023-01-17T11:25:22.442Z,83.48
2023-01-17T11:30:36.002Z,83.46
2023-01-17T11:35:48.295Z,83.39
2023-01-17T11:41:18.295Z,83.36
2023-01-17T11:46:28.842Z,83.31
2023-01-17T11:51:42.360Z,83.28
2023-01-17T11:56:52.335Z,83.28
2023-01-17T12:02:32.165Z,83.26
2023-01-17T12:07:49.963Z,83.24
2023-01-17T12:13:25.400Z,83.24
2023-01-17T12:18:46.588Z,83.23
2023-01-17T12:24:29.299Z,83.21
2023-01-17T12:29:51.730Z,83.19
2023-01-17T12:35:08.560Z,83.17
2023-01-17T12:40:30.609Z,83.12
2023-01-17T12:45:45.011Z,83.09
2023-01-17T12:50:57.355Z,83.06
2023-01-17T12:56:10.665Z,83.03
2023-01-17T13:01:25.864Z,82.96
2023-01-17T13:06:44.407Z,82.87
2023-01-17T13:11:57.244Z,82.79
2023-01-17T13:17:19.583Z,82.70
2023-01-17T13:22:27.753Z,82.64
2023-01-17T13:27:58.091Z,82.62
2023-01-17T13:33:25.599Z,82.55
2023-01-17T13:38:55.877Z,82.49
2023-01-17T13:44:25.206Z,82.46
2023-01-17T13:49:49.836Z,82.43
2023-01-17T13:54:59.381Z,82.32
2023-01-17T14:00:37.156Z,82.23
2023-01-17T14:05:58.535Z,82.16
2023-01-17T14:11:13.810Z,82.08
2023-01-17T14:16:31.890Z,82.03
2023-01-17T14:21:40.356Z,81.96
2023-01-17T14:26:58.955Z,81.92
2023-01-17T14:32:11.836Z,81.87
2023-01-17T14:37:48.073Z,81.82
2023-01-17T14:43:02.988Z,81.76
2023-01-17T14:48:23.374Z,81.69
2023-01-17T14:53:32.948Z,81.63
2023-01-17T14:58:41.680Z,81.59
2023-01-17T15:03:52.286Z,81.56
2023-01-17T15:09:03.747Z,81.55
2023-01-17T15:14:24.194Z,81.57
2023-01-17T15:19:45.885Z,81.59
2023-01-17T15:24:55.011Z,81.63
2023-01-17T15:30:04.683Z,81.67
2023-01-17T15:35:21.157Z,81.69
2023-01-17T15:40:31.628Z,81.69
2023-01-17T15:45:40.285Z,81.69
2023-01-17T15:50:49.002Z,81.71
2023-01-17T15:55:58.205Z,81.67
2023-01-17T16:01:17.904Z,81.61
2023-01-17T16:06:48.141Z,81.53
2023-01-17T16:11:57.042Z,81.46
2023-01-17T16:17:06.427Z,81.43
2023-01-17T16:22:15.423Z,81.42
2023-01-17T16:27:24.142Z,81.39
2023-01-17T16:32:32.929Z,81.33
2023-01-17T16:37:42.240Z,81.26
2023-01-17T16:42:50.382Z,81.17
2023-01-17T16:47:59.035Z,81.09
2023-01-17T16:53:07.222Z,81.00
2023-01-17T16:58:17.223Z,80.91
2023-01-17T17:03:25.785Z,80.79
2023-01-17T17:08:37.077Z,80.64
2023-01-17T17:13:46.697Z,80.53
2023-01-17T17:19:01.086Z,80.44
2023-01-17T17:24:13.551Z,80.35
2023-01-17T17:29:22.249Z,80.29
2023-01-17T17:34:35.894Z,80.23
2023-01-17T17:39:45.004Z,80.20
2023-01-17T17:44:53.427Z,80.17
2023-01-17T17:50:02.225Z,80.13
2023-01-17T17:55:11.478Z,80.13
2023-01-17T18:00:21.371Z,80.12
2023-01-17T18:05:29.897Z,80.13
2023-01-17T18:10:38.446Z,80.13
2023-01-17T18:15:47.160Z,80.13
2023-01-17T18:20:55.655Z,80.15
2023-01-17T18:26:04.064Z,80.21
2023-01-17T18:31:12.737Z,80.32
2023-01-17T18:36:21.530Z,80.45
2023-01-17T18:41:31.901Z,80.59
2023-01-17T18:46:42.411Z,80.73
2023-01-17T18:51:51.590Z,80.85
2023-01-17T18:57:00.198Z,80.93
2023-01-17T19:02:08.450Z,80.94
2023-01-17T19:07:16.802Z,80.91
2023-01-17T19:12:24.982Z,80.91
2023-01-17T19:17:33.288Z,80.90
2023-01-17T19:22:42.058Z,80.88
2023-01-17T19:27:50.415Z,80.86
2023-01-17T19:32:58.814Z,80.84
2023-01-17T19:38:07.583Z,80.83
2023-01-17T19:43:16.513Z,80.83
2023-01-17T19:48:24.983Z,80.81
2023-01-17T19:53:33.493Z,80.80
2023-01-17T19:58:42.613Z,80.80
2023-01-17T20:03:51.540Z,80.87
2023-01-17T20:09:00.369Z,80.97
2023-01-17T20:14:08.966Z,81.10
2023-01-17T20:19:17.220Z,81.23
2023-01-17T20:24:25.954Z,81.34
2023-01-17T20:29:34.481Z,81.46
2023-01-17T20:34:45.339Z,81.56
2023-01-17T20:39:54.495Z,81.66
2023-01-17T20:45:03.230Z,81.74
2023-01-17T20:50:12.770Z,81.82
2023-01-17T20:55:22.041Z,81.90
2023-01-17T21:00:30.580Z,81.96
2023-01-17T21:05:39.318Z,81.99
2023-01-17T21:10:51.171Z,82.03
2023-01-17T21:15:59.530Z,82.04
2023-01-17T21:21:09.302Z,82.04
2023-01-17T21:26:19.822Z,82.05
2023-01-17T21:31:34.041Z,82.05
2023-01-17T21:36:43.827Z,82.02
2023-01-17T21:41:52.548Z,82.01
2023-01-17T21:47:01.283Z,81.99
2023-01-17T21:52:23.541Z,81.97
2023-01-17T21:57:48.053Z,81.92
2023-01-17T22:02:58.819Z,81.85
2023-01-17T22:08:14.842Z,81.82
2023-01-17T22:13:23.400Z,81.78
2023-01-17T22:18:32.321Z,81.73
2023-01-17T22:23:41.147Z,81.68
2023-01-17T22:28:50.008Z,81.62
2023-01-17T22:33:59.867Z,81.55
2023-01-17T22:39:08.768Z,81.48
2023-01-17T22:44:17.164Z,81.41
2023-01-17T22:49:25.566Z,81.35
2023-01-17T22:54:33.970Z,81.28
2023-01-17T22:59:42.516Z,81.27
2023-01-17T23:04:50.706Z,81.27
2023-01-17T23:09:59.061Z,81.28
2023-01-17T23:15:27.584Z,81.28
2023-01-17T23:20:35.712Z,81.28
2023-01-17T23:25:43.966Z,81.43
2023-01-17T23:30:52.807Z,81.73
2023-01-17T23:36:00.153Z,81.73
2023-01-17T23:41:43.817Z,81.62
2023-01-17T23:46:52.286Z,81.44
2023-01-17T23:52:00.835Z,81.12
2023-01-17T23:57:09.144Z,80.85
